sensor_id;sensor_type;location;lat;lon;timestamp;temperature;humidity
70676;DHT22;59069;52.242;20.900;2022-12-05T00:00:28;1.68;83.95
70676;DHT22;59069;52.242;20.900;2022-12-05T00:02:53;1.63;83.86
70676;DHT22;59069;52.242;20.900;2022-12-05T00:05:18;1.65;83.87
70676;DHT22;59069;52.242;20.900;2022-12-05T00:07:45;1.63;83.76
70676;DHT22;59069;52.242;20.900;2022-12-05T00:10:10;1.59;83.82
70676;DHT22;59069;52.242;20.900;2022-12-05T00:12:36;1.58;83.81
70676;DHT22;59069;52.242;20.900;2022-12-05T00:15:01;1.58;83.99
70676;DHT22;59069;52.242;20.900;2022-12-05T00:17:27;1.56;84.16
70676;DHT22;59069;52.242;20.900;2022-12-05T00:19:52;1.59;84.19
70676;DHT22;59069;52.242;20.900;2022-12-05T00:22:17;1.61;84.16
70676;DHT22;59069;52.242;20.900;2022-12-05T00:24:43;1.62;84.12
70676;DHT22;59069;52.242;20.900;2022-12-05T00:27:08;1.61;84.13
70676;DHT22;59069;52.242;20.900;2022-12-05T00:29:34;1.58;84.07
70676;DHT22;59069;52.242;20.900;2022-12-05T00:31:59;1.55;83.95
70676;DHT22;59069;52.242;20.900;2022-12-05T00:34:24;1.55;84.03
70676;DHT22;59069;52.242;20.900;2022-12-05T00:36:50;1.58;84.07
70676;DHT22;59069;52.242;20.900;2022-12-05T00:39:16;1.52;84.08
70676;DHT22;59069;52.242;20.900;2022-12-05T00:41:42;1.52;84.11
70676;DHT22;59069;52.242;20.900;2022-12-05T00:44:09;1.54;84.20
70676;DHT22;59069;52.242;20.900;2022-12-05T00:46:35;1.55;84.16
70676;DHT22;59069;52.242;20.900;2022-12-05T00:49:02;1.54;84.12
70676;DHT22;59069;52.242;20.900;2022-12-05T00:51:39;1.56;84.16
70676;DHT22;59069;52.242;20.900;2022-12-05T00:54:11;1.58;84.20
70676;DHT22;59069;52.242;20.900;2022-12-05T00:56:36;1.58;84.18
70676;DHT22;59069;52.242;20.900;2022-12-05T00:59:03;1.59;84.21
70676;DHT22;59069;52.242;20.900;2022-12-05T01:01:35;1.56;84.19
70676;DHT22;59069;52.242;20.900;2022-12-05T01:04:04;1.56;84.18
70676;DHT22;59069;52.242;20.900;2022-12-05T01:06:30;1.56;84.19
70676;DHT22;59069;52.242;20.900;2022-12-05T01:08:57;1.56;84.25
70676;DHT22;59069;52.242;20.900;2022-12-05T01:11:24;1.58;84.25
70676;DHT22;59069;52.242;20.900;2022-12-05T01:13:49;1.58;84.07
70676;DHT22;59069;52.242;20.900;2022-12-05T01:16:40;1.58;83.89
70676;DHT22;59069;52.242;20.900;2022-12-05T01:19:09;1.52;83.82
70676;DHT22;59069;52.242;20.900;2022-12-05T01:21:35;1.52;83.93
70676;DHT22;59069;52.242;20.900;2022-12-05T01:24:01;1.49;83.92
70676;DHT22;59069;52.242;20.900;2022-12-05T01:26:26;1.47;83.97
70676;DHT22;59069;52.242;20.900;2022-12-05T01:28:52;1.45;84.04
70676;DHT22;59069;52.242;20.900;2022-12-05T01:33:49;1.44;84.18
70676;DHT22;59069;52.242;20.900;2022-12-05T01:36:15;1.40;84.17
70676;DHT22;59069;52.242;20.900;2022-12-05T01:38:42;1.38;84.20
70676;DHT22;59069;52.242;20.900;2022-12-05T01:41:13;1.37;84.27
70676;DHT22;59069;52.242;20.900;2022-12-05T01:43:58;1.34;84.43
70676;DHT22;59069;52.242;20.900;2022-12-05T01:46:25;1.37;84.52
70676;DHT22;59069;52.242;20.900;2022-12-05T01:48:52;1.38;84.43
70676;DHT22;59069;52.242;20.900;2022-12-05T01:51:19;1.37;84.53
70676;DHT22;59069;52.242;20.900;2022-12-05T01:53:45;1.38;84.55
70676;DHT22;59069;52.242;20.900;2022-12-05T01:56:11;1.41;84.57
70676;DHT22;59069;52.242;20.900;2022-12-05T01:58:40;1.41;84.53
70676;DHT22;59069;52.242;20.900;2022-12-05T02:01:06;1.44;84.28
70676;DHT22;59069;52.242;20.900;2022-12-05T02:03:31;1.37;84.24
70676;DHT22;59069;52.242;20.900;2022-12-05T02:05:57;1.34;84.25
70676;DHT22;59069;52.242;20.900;2022-12-05T02:08:26;1.28;84.49
70676;DHT22;59069;52.242;20.900;2022-12-05T02:10:54;1.28;84.69
70676;DHT22;59069;52.242;20.900;2022-12-05T02:19:44;1.31;85.01
70676;DHT22;59069;52.242;20.900;2022-12-05T02:30:23;1.31;84.63
70676;DHT22;59069;52.242;20.900;2022-12-05T02:41:05;1.32;84.70
70676;DHT22;59069;52.242;20.900;2022-12-05T02:43:53;1.34;84.75
70676;DHT22;59069;52.242;20.900;2022-12-05T02:46:21;1.40;84.79
70676;DHT22;59069;52.242;20.900;2022-12-05T02:48:49;1.38;84.78
70676;DHT22;59069;52.242;20.900;2022-12-05T02:51:19;1.37;84.62
70676;DHT22;59069;52.242;20.900;2022-12-05T02:53:47;1.31;84.54
70676;DHT22;59069;52.242;20.900;2022-12-05T02:56:14;1.30;84.60
70676;DHT22;59069;52.242;20.900;2022-12-05T02:58:51;1.28;84.56
70676;DHT22;59069;52.242;20.900;2022-12-05T03:01:19;1.26;84.50
70676;DHT22;59069;52.242;20.900;2022-12-05T03:03:46;1.21;84.61
70676;DHT22;59069;52.242;20.900;2022-12-05T03:06:15;1.18;84.82
70676;DHT22;59069;52.242;20.900;2022-12-05T03:08:55;1.23;84.73
70676;DHT22;59069;52.242;20.900;2022-12-05T03:11:23;1.20;84.69
70676;DHT22;59069;52.242;20.900;2022-12-05T03:13:52;1.18;84.68
70676;DHT22;59069;52.242;20.900;2022-12-05T03:16:40;1.23;84.65
70676;DHT22;59069;52.242;20.900;2022-12-05T03:19:18;1.21;84.74
70676;DHT22;59069;52.242;20.900;2022-12-05T03:21:49;1.24;84.79
70676;DHT22;59069;52.242;20.900;2022-12-05T03:24:16;1.26;84.77
70676;DHT22;59069;52.242;20.900;2022-12-05T03:37:04;1.32;84.51
70676;DHT22;59069;52.242;20.900;2022-12-05T03:39:34;1.28;84.38
70676;DHT22;59069;52.242;20.900;2022-12-05T03:42:10;1.28;84.19
70676;DHT22;59069;52.242;20.900;2022-12-05T03:44:56;1.20;84.26
70676;DHT22;59069;52.242;20.900;2022-12-05T03:50:13;1.14;84.50
70676;DHT22;59069;52.242;20.900;2022-12-05T03:52:46;1.17;84.51
70676;DHT22;59069;52.242;20.900;2022-12-05T03:55:13;1.16;84.50
70676;DHT22;59069;52.242;20.900;2022-12-05T03:57:50;1.18;84.62
70676;DHT22;59069;52.242;20.900;2022-12-05T04:00:20;1.20;84.61
70676;DHT22;59069;52.242;20.900;2022-12-05T04:02:47;1.17;84.61
70676;DHT22;59069;52.242;20.900;2022-12-05T04:05:20;1.21;84.59
70676;DHT22;59069;52.242;20.900;2022-12-05T04:07:50;1.21;84.53
70676;DHT22;59069;52.242;20.900;2022-12-05T04:10:21;1.24;84.58
70676;DHT22;59069;52.242;20.900;2022-12-05T04:12:49;1.24;84.55
70676;DHT22;59069;52.242;20.900;2022-12-05T04:15:21;1.26;84.51
70676;DHT22;59069;52.242;20.900;2022-12-05T04:17:56;1.27;84.45
70676;DHT22;59069;52.242;20.900;2022-12-05T04:20:38;1.31;84.36
70676;DHT22;59069;52.242;20.900;2022-12-05T04:23:24;1.32;84.09
70676;DHT22;59069;52.242;20.900;2022-12-05T04:26:02;1.34;84.05
70676;DHT22;59069;52.242;20.900;2022-12-05T04:28:38;1.31;84.08
70676;DHT22;59069;52.242;20.900;2022-12-05T04:31:15;1.21;83.94
70676;DHT22;59069;52.242;20.900;2022-12-05T04:33:49;1.20;84.11
70676;DHT22;59069;52.242;20.900;2022-12-05T04:36:22;1.23;84.06
70676;DHT22;59069;52.242;20.900;2022-12-05T04:39:10;1.23;84.13
70676;DHT22;59069;52.242;20.900;2022-12-05T04:41:40;1.24;84.19
70676;DHT22;59069;52.242;20.900;2022-12-05T04:44:08;1.26;84.11
70676;DHT22;59069;52.242;20.900;2022-12-05T04:46:37;1.27;84.11
70676;DHT22;59069;52.242;20.900;2022-12-05T04:49:07;1.27;84.08
70676;DHT22;59069;52.242;20.900;2022-12-05T04:51:34;1.24;84.01
70676;DHT22;59069;52.242;20.900;2022-12-05T04:54:07;1.28;83.99
70676;DHT22;59069;52.242;20.900;2022-12-05T04:56:35;1.28;83.95
70676;DHT22;59069;52.242;20.900;2022-12-05T04:59:02;1.31;83.86
70676;DHT22;59069;52.242;20.900;2022-12-05T05:01:36;1.30;83.86
70676;DHT22;59069;52.242;20.900;2022-12-05T05:04:09;1.32;83.78
70676;DHT22;59069;52.242;20.900;2022-12-05T05:06:38;1.31;83.68
70676;DHT22;59069;52.242;20.900;2022-12-05T05:09:04;1.35;83.70
70676;DHT22;59069;52.242;20.900;2022-12-05T05:11:32;1.32;83.57
70676;DHT22;59069;52.242;20.900;2022-12-05T05:13:58;1.35;83.48
70676;DHT22;59069;52.242;20.900;2022-12-05T05:16:27;1.32;83.45
70676;DHT22;59069;52.242;20.900;2022-12-05T05:18:53;1.28;83.54
70676;DHT22;59069;52.242;20.900;2022-12-05T05:21:40;1.26;83.54
70676;DHT22;59069;52.242;20.900;2022-12-05T05:24:07;1.26;83.58
70676;DHT22;59069;52.242;20.900;2022-12-05T05:26:37;1.24;83.58
70676;DHT22;59069;52.242;20.900;2022-12-05T05:29:03;1.26;83.46
70676;DHT22;59069;52.242;20.900;2022-12-05T05:31:28;1.23;83.50
70676;DHT22;59069;52.242;20.900;2022-12-05T05:33:55;1.23;83.48
70676;DHT22;59069;52.242;20.900;2022-12-05T05:36:22;1.23;83.50
70676;DHT22;59069;52.242;20.900;2022-12-05T05:38:52;1.23;83.59
70676;DHT22;59069;52.242;20.900;2022-12-05T05:41:26;1.24;83.39
70676;DHT22;59069;52.242;20.900;2022-12-05T05:43:52;1.20;83.35
70676;DHT22;59069;52.242;20.900;2022-12-05T05:46:20;1.18;83.45
70676;DHT22;59069;52.242;20.900;2022-12-05T05:48:47;1.17;83.49
70676;DHT22;59069;52.242;20.900;2022-12-05T05:51:14;1.17;83.43
70676;DHT22;59069;52.242;20.900;2022-12-05T05:53:40;1.14;83.47
70676;DHT22;59069;52.242;20.900;2022-12-05T05:56:09;1.16;83.30
70676;DHT22;59069;52.242;20.900;2022-12-05T05:58:35;1.13;83.48
70676;DHT22;59069;52.242;20.900;2022-12-05T06:01:04;1.13;83.66
70676;DHT22;59069;52.242;20.900;2022-12-05T06:03:30;1.13;83.63
70676;DHT22;59069;52.242;20.900;2022-12-05T06:06:00;1.14;83.58
70676;DHT22;59069;52.242;20.900;2022-12-05T06:08:31;1.16;83.61
70676;DHT22;59069;52.242;20.900;2022-12-05T06:10:56;1.20;83.65
70676;DHT22;59069;52.242;20.900;2022-12-05T06:13:22;1.21;83.66
70676;DHT22;59069;52.242;20.900;2022-12-05T06:15:47;1.20;83.57
70676;DHT22;59069;52.242;20.900;2022-12-05T06:18:13;1.26;83.50
70676;DHT22;59069;52.242;20.900;2022-12-05T06:20:38;1.26;83.45
70676;DHT22;59069;52.242;20.900;2022-12-05T06:23:03;1.24;83.48
70676;DHT22;59069;52.242;20.900;2022-12-05T06:25:29;1.26;83.48
70676;DHT22;59069;52.242;20.900;2022-12-05T06:27:54;1.28;83.49
70676;DHT22;59069;52.242;20.900;2022-12-05T06:30:20;1.30;83.53
70676;DHT22;59069;52.242;20.900;2022-12-05T06:32:45;1.32;83.58
70676;DHT22;59069;52.242;20.900;2022-12-05T06:35:10;1.31;83.29
70676;DHT22;59069;52.242;20.900;2022-12-05T06:37:43;1.28;83.27
70676;DHT22;59069;52.242;20.900;2022-12-05T06:40:14;1.30;83.38
70676;DHT22;59069;52.242;20.900;2022-12-05T06:42:39;1.31;83.45
70676;DHT22;59069;52.242;20.900;2022-12-05T06:45:05;1.32;83.55
70676;DHT22;59069;52.242;20.900;2022-12-05T06:47:31;1.35;83.46
70676;DHT22;59069;52.242;20.900;2022-12-05T06:49:56;1.38;83.42
70676;DHT22;59069;52.242;20.900;2022-12-05T06:52:21;1.41;83.41
70676;DHT22;59069;52.242;20.900;2022-12-05T06:54:47;1.40;83.34
70676;DHT22;59069;52.242;20.900;2022-12-05T06:57:13;1.38;83.45
70676;DHT22;59069;52.242;20.900;2022-12-05T06:59:38;1.38;83.49
70676;DHT22;59069;52.242;20.900;2022-12-05T07:02:05;1.41;83.49
70676;DHT22;59069;52.242;20.900;2022-12-05T07:04:32;1.41;83.36
70676;DHT22;59069;52.242;20.900;2022-12-05T07:06:58;1.41;83.39
70676;DHT22;59069;52.242;20.900;2022-12-05T07:09:27;1.44;83.50
70676;DHT22;59069;52.242;20.900;2022-12-05T07:12:14;1.47;83.56
70676;DHT22;59069;52.242;20.900;2022-12-05T07:14:40;1.48;83.45
70676;DHT22;59069;52.242;20.900;2022-12-05T07:17:06;1.47;83.30
70676;DHT22;59069;52.242;20.900;2022-12-05T07:19:31;1.48;83.24
70676;DHT22;59069;52.242;20.900;2022-12-05T07:21:56;1.47;83.22
70676;DHT22;59069;52.242;20.900;2022-12-05T07:24:22;1.44;83.33
70676;DHT22;59069;52.242;20.900;2022-12-05T07:26:47;1.47;83.38
70676;DHT22;59069;52.242;20.900;2022-12-05T07:29:13;1.51;83.34
70676;DHT22;59069;52.242;20.900;2022-12-05T07:31:38;1.58;83.38
70676;DHT22;59069;52.242;20.900;2022-12-05T07:34:03;1.59;83.40
70676;DHT22;59069;52.242;20.900;2022-12-05T07:36:29;1.62;83.34
70676;DHT22;59069;52.242;20.900;2022-12-05T07:38:56;1.62;83.16
70676;DHT22;59069;52.242;20.900;2022-12-05T07:41:27;1.61;83.05
70676;DHT22;59069;52.242;20.900;2022-12-05T07:43:55;1.56;83.11
70676;DHT22;59069;52.242;20.900;2022-12-05T07:46:21;1.61;83.27
70676;DHT22;59069;52.242;20.900;2022-12-05T07:48:47;1.66;83.35
70676;DHT22;59069;52.242;20.900;2022-12-05T07:51:13;1.68;83.21
70676;DHT22;59069;52.242;20.900;2022-12-05T07:53:39;1.66;82.98
70676;DHT22;59069;52.242;20.900;2022-12-05T07:56:07;1.66;83.06
70676;DHT22;59069;52.242;20.900;2022-12-05T07:58:33;1.65;83.07
70676;DHT22;59069;52.242;20.900;2022-12-05T08:01:11;1.66;83.16
70676;DHT22;59069;52.242;20.900;2022-12-05T08:03:37;1.69;83.08
70676;DHT22;59069;52.242;20.900;2022-12-05T08:06:24;1.68;83.02
70676;DHT22;59069;52.242;20.900;2022-12-05T08:08:50;1.66;83.02
70676;DHT22;59069;52.242;20.900;2022-12-05T08:11:27;1.69;83.16
70676;DHT22;59069;52.242;20.900;2022-12-05T08:13:54;1.72;83.05
70676;DHT22;59069;52.242;20.900;2022-12-05T08:16:23;1.78;83.08
70676;DHT22;59069;52.242;20.900;2022-12-05T08:18:53;1.79;82.87
70676;DHT22;59069;52.242;20.900;2022-12-05T08:21:18;1.79;82.85
70676;DHT22;59069;52.242;20.900;2022-12-05T08:23:45;1.82;82.89
70676;DHT22;59069;52.242;20.900;2022-12-05T08:26:20;1.78;82.82
70676;DHT22;59069;52.242;20.900;2022-12-05T08:28:49;1.76;83.07
70676;DHT22;59069;52.242;20.900;2022-12-05T08:31:17;1.80;83.19
70676;DHT22;59069;52.242;20.900;2022-12-05T08:33:43;1.79;83.03
70676;DHT22;59069;52.242;20.900;2022-12-05T08:36:11;1.85;83.13
70676;DHT22;59069;52.242;20.900;2022-12-05T08:38:37;1.87;82.62
70676;DHT22;59069;52.242;20.900;2022-12-05T08:41:08;1.83;82.71
70676;DHT22;59069;52.242;20.900;2022-12-05T08:43:34;1.83;82.72
70676;DHT22;59069;52.242;20.900;2022-12-05T08:46:00;1.83;82.91
70676;DHT22;59069;52.242;20.900;2022-12-05T08:48:27;1.85;82.75
70676;DHT22;59069;52.242;20.900;2022-12-05T08:50:53;1.86;82.82
70676;DHT22;59069;52.242;20.900;2022-12-05T08:53:18;1.87;82.86
70676;DHT22;59069;52.242;20.900;2022-12-05T08:55:44;1.90;82.55
70676;DHT22;59069;52.242;20.900;2022-12-05T08:58:12;1.89;82.64
70676;DHT22;59069;52.242;20.900;2022-12-05T09:00:39;1.92;82.73
70676;DHT22;59069;52.242;20.900;2022-12-05T09:03:04;1.92;82.57
70676;DHT22;59069;52.242;20.900;2022-12-05T09:05:30;1.95;82.67
70676;DHT22;59069;52.242;20.900;2022-12-05T09:07:55;1.95;82.62
70676;DHT22;59069;52.242;20.900;2022-12-05T09:10:21;1.96;82.69
70676;DHT22;59069;52.242;20.900;2022-12-05T09:12:46;1.99;82.61
70676;DHT22;59069;52.242;20.900;2022-12-05T09:15:12;2.05;82.67
70676;DHT22;59069;52.242;20.900;2022-12-05T09:17:38;2.12;82.55
70676;DHT22;59069;52.242;20.900;2022-12-05T09:20:05;2.10;82.40
70676;DHT22;59069;52.242;20.900;2022-12-05T09:22:32;2.12;82.32
70676;DHT22;59069;52.242;20.900;2022-12-05T09:24:58;2.13;82.26
70676;DHT22;59069;52.242;20.900;2022-12-05T09:27:24;2.13;81.99
70676;DHT22;59069;52.242;20.900;2022-12-05T09:29:50;2.16;81.90
70676;DHT22;59069;52.242;20.900;2022-12-05T09:32:15;2.19;82.14
70676;DHT22;59069;52.242;20.900;2022-12-05T09:34:40;2.21;82.14
70676;DHT22;59069;52.242;20.900;2022-12-05T09:37:07;2.23;82.12
70676;DHT22;59069;52.242;20.900;2022-12-05T09:39:33;2.27;82.13
70676;DHT22;59069;52.242;20.900;2022-12-05T09:45:11;2.37;81.92
70676;DHT22;59069;52.242;20.900;2022-12-05T09:55:59;2.41;81.32
70676;DHT22;59069;52.242;20.900;2022-12-05T09:58:48;2.41;81.45
70676;DHT22;59069;52.242;20.900;2022-12-05T10:01:37;2.41;81.30
70676;DHT22;59069;52.242;20.900;2022-12-05T10:12:46;2.47;80.92
70676;DHT22;59069;52.242;20.900;2022-12-05T10:15:28;2.44;80.70
70676;DHT22;59069;52.242;20.900;2022-12-05T10:18:01;2.37;80.59
70676;DHT22;59069;52.242;20.900;2022-12-05T10:20:43;2.34;80.71
70676;DHT22;59069;52.242;20.900;2022-12-05T10:23:17;2.29;80.91
70676;DHT22;59069;52.242;20.900;2022-12-05T10:25:44;2.27;81.29
70676;DHT22;59069;52.242;20.900;2022-12-05T10:28:48;2.29;81.40
70676;DHT22;59069;52.242;20.900;2022-12-05T10:31:17;2.31;81.34
70676;DHT22;59069;52.242;20.900;2022-12-05T10:33:52;2.29;81.21
70676;DHT22;59069;52.242;20.900;2022-12-05T10:36:20;2.29;81.40
70676;DHT22;59069;52.242;20.900;2022-12-05T10:38:45;2.23;81.32
70676;DHT22;59069;52.242;20.900;2022-12-05T10:41:12;2.26;81.46
70676;DHT22;59069;52.242;20.900;2022-12-05T10:43:41;2.21;81.46
70676;DHT22;59069;52.242;20.900;2022-12-05T10:46:07;2.26;81.61
70676;DHT22;59069;52.242;20.900;2022-12-05T10:48:37;2.26;81.54
70676;DHT22;59069;52.242;20.900;2022-12-05T10:51:04;2.23;81.54
70676;DHT22;59069;52.242;20.900;2022-12-05T10:53:48;2.21;81.49
70676;DHT22;59069;52.242;20.900;2022-12-05T10:56:39;2.21;81.82
70676;DHT22;59069;52.242;20.900;2022-12-05T10:59:08;2.24;81.97
70676;DHT22;59069;52.242;20.900;2022-12-05T11:01:34;2.24;81.88
70676;DHT22;59069;52.242;20.900;2022-12-05T11:04:09;2.30;81.97
70676;DHT22;59069;52.242;20.900;2022-12-05T11:06:35;2.30;81.74
70676;DHT22;59069;52.242;20.900;2022-12-05T11:09:38;2.29;81.86
70676;DHT22;59069;52.242;20.900;2022-12-05T11:12:17;2.30;81.97
70676;DHT22;59069;52.242;20.900;2022-12-05T11:17:34;2.33;82.01
70676;DHT22;59069;52.242;20.900;2022-12-05T11:20:00;2.36;82.01
70676;DHT22;59069;52.242;20.900;2022-12-05T11:22:31;2.38;82.14
70676;DHT22;59069;52.242;20.900;2022-12-05T11:24:56;2.38;82.04
70676;DHT22;59069;52.242;20.900;2022-12-05T11:27:28;2.40;82.03
70676;DHT22;59069;52.242;20.900;2022-12-05T11:30:02;2.44;81.83
70676;DHT22;59069;52.242;20.900;2022-12-05T11:32:31;2.44;81.86
70676;DHT22;59069;52.242;20.900;2022-12-05T11:48:49;2.38;82.08
70676;DHT22;59069;52.242;20.900;2022-12-05T11:56:35;2.33;82.21
70676;DHT22;59069;52.242;20.900;2022-12-05T11:59:38;2.34;82.30
70676;DHT22;59069;52.242;20.900;2022-12-05T12:04:51;2.33;82.61
70676;DHT22;59069;52.242;20.900;2022-12-05T12:10:13;2.36;82.69
70676;DHT22;59069;52.242;20.900;2022-12-05T12:21:17;2.38;82.82
70676;DHT22;59069;52.242;20.900;2022-12-05T12:26:34;2.43;83.27
70676;DHT22;59069;52.242;20.900;2022-12-05T12:29:24;2.43;83.12
70676;DHT22;59069;52.242;20.900;2022-12-05T12:40:48;2.50;83.11
70676;DHT22;59069;52.242;20.900;2022-12-05T12:51:22;2.55;83.07
70676;DHT22;59069;52.242;20.900;2022-12-05T12:54:25;2.55;82.92
70676;DHT22;59069;52.242;20.900;2022-12-05T13:02:45;2.51;82.79
70676;DHT22;59069;52.242;20.900;2022-12-05T13:05:45;2.51;82.92
70676;DHT22;59069;52.242;20.900;2022-12-05T13:08:42;2.50;82.96
70676;DHT22;59069;52.242;20.900;2022-12-05T13:11:12;2.45;82.97
70676;DHT22;59069;52.242;20.900;2022-12-05T13:13:51;2.43;83.13
70676;DHT22;59069;52.242;20.900;2022-12-05T13:16:33;2.41;83.29
70676;DHT22;59069;52.242;20.900;2022-12-05T13:18:59;2.41;83.37
70676;DHT22;59069;52.242;20.900;2022-12-05T13:21:26;2.45;83.48
70676;DHT22;59069;52.242;20.900;2022-12-05T13:23:55;2.48;83.45
70676;DHT22;59069;52.242;20.900;2022-12-05T13:26:23;2.53;83.45
70676;DHT22;59069;52.242;20.900;2022-12-05T13:28:52;2.54;83.34
70676;DHT22;59069;52.242;20.900;2022-12-05T13:31:38;2.50;83.39
70676;DHT22;59069;52.242;20.900;2022-12-05T13:34:04;2.50;83.36
70676;DHT22;59069;52.242;20.900;2022-12-05T13:36:50;2.45;83.49
70676;DHT22;59069;52.242;20.900;2022-12-05T13:39:34;2.47;83.46
70676;DHT22;59069;52.242;20.900;2022-12-05T13:42:21;2.40;83.58
70676;DHT22;59069;52.242;20.900;2022-12-05T13:44:55;2.41;83.65
70676;DHT22;59069;52.242;20.900;2022-12-05T13:52:40;2.38;83.75
70676;DHT22;59069;52.242;20.900;2022-12-05T13:57:53;2.41;83.92
70676;DHT22;59069;52.242;20.900;2022-12-05T14:00:22;2.43;83.97
70676;DHT22;59069;52.242;20.900;2022-12-05T14:02:50;2.48;83.95
70676;DHT22;59069;52.242;20.900;2022-12-05T14:07:52;2.50;83.92
70676;DHT22;59069;52.242;20.900;2022-12-05T14:13:00;2.53;83.81
70676;DHT22;59069;52.242;20.900;2022-12-05T14:15:35;2.51;83.70
70676;DHT22;59069;52.242;20.900;2022-12-05T14:18:22;2.51;83.72
70676;DHT22;59069;52.242;20.900;2022-12-05T14:23:42;2.50;83.76
70676;DHT22;59069;52.242;20.900;2022-12-05T14:29:02;2.48;83.92
70676;DHT22;59069;52.242;20.900;2022-12-05T14:39:45;2.50;83.76
70676;DHT22;59069;52.242;20.900;2022-12-05T14:44:48;2.48;83.83
70676;DHT22;59069;52.242;20.900;2022-12-05T14:47:19;2.48;83.86
70676;DHT22;59069;52.242;20.900;2022-12-05T14:49:55;2.47;83.92
70676;DHT22;59069;52.242;20.900;2022-12-05T14:52:24;2.47;83.92
70676;DHT22;59069;52.242;20.900;2022-12-05T14:54:52;2.48;83.93
70676;DHT22;59069;52.242;20.900;2022-12-05T14:57:19;2.47;83.96
70676;DHT22;59069;52.242;20.900;2022-12-05T14:59:51;2.50;84.08
70676;DHT22;59069;52.242;20.900;2022-12-05T15:02:22;2.53;84.05
70676;DHT22;59069;52.242;20.900;2022-12-05T15:05:00;2.54;83.98
70676;DHT22;59069;52.242;20.900;2022-12-05T15:07:34;2.55;83.93
70676;DHT22;59069;52.242;20.900;2022-12-05T15:10:07;2.58;83.87
70676;DHT22;59069;52.242;20.900;2022-12-05T15:18:17;2.53;83.85
70676;DHT22;59069;52.242;20.900;2022-12-05T15:26:05;2.54;83.93
70676;DHT22;59069;52.242;20.900;2022-12-05T15:28:36;2.53;83.96
70676;DHT22;59069;52.242;20.900;2022-12-05T15:31:02;2.57;84.03
70676;DHT22;59069;52.242;20.900;2022-12-05T15:33:28;2.57;84.02
70676;DHT22;59069;52.242;20.900;2022-12-05T15:35:54;2.58;84.01
70676;DHT22;59069;52.242;20.900;2022-12-05T15:38:26;2.60;83.93
70676;DHT22;59069;52.242;20.900;2022-12-05T15:40:53;2.60;83.98
70676;DHT22;59069;52.242;20.900;2022-12-05T15:43:27;2.60;83.94
70676;DHT22;59069;52.242;20.900;2022-12-05T15:46:19;2.60;83.94
70676;DHT22;59069;52.242;20.900;2022-12-05T15:48:48;2.62;84.00
70676;DHT22;59069;52.242;20.900;2022-12-05T15:51:13;2.64;83.94
70676;DHT22;59069;52.242;20.900;2022-12-05T15:53:49;2.65;83.66
70676;DHT22;59069;52.242;20.900;2022-12-05T15:56:37;2.68;83.88
70676;DHT22;59069;52.242;20.900;2022-12-05T15:59:13;2.68;83.81
70676;DHT22;59069;52.242;20.900;2022-12-05T16:01:45;2.70;83.78
70676;DHT22;59069;52.242;20.900;2022-12-05T16:04:23;2.70;83.67
70676;DHT22;59069;52.242;20.900;2022-12-05T16:06:54;2.68;83.62
70676;DHT22;59069;52.242;20.900;2022-12-05T16:09:21;2.68;83.74
70676;DHT22;59069;52.242;20.900;2022-12-05T16:11:55;2.70;83.74
70676;DHT22;59069;52.242;20.900;2022-12-05T16:14:23;2.70;83.73
70676;DHT22;59069;52.242;20.900;2022-12-05T16:16:55;2.71;83.71
70676;DHT22;59069;52.242;20.900;2022-12-05T16:19:23;2.71;83.79
70676;DHT22;59069;52.242;20.900;2022-12-05T16:24:41;2.68;83.65
70676;DHT22;59069;52.242;20.900;2022-12-05T16:27:24;2.65;83.72
70676;DHT22;59069;52.242;20.900;2022-12-05T16:32:35;2.61;83.91
70676;DHT22;59069;52.242;20.900;2022-12-05T16:35:00;2.58;84.01
70676;DHT22;59069;52.242;20.900;2022-12-05T16:37:28;2.60;83.97
70676;DHT22;59069;52.242;20.900;2022-12-05T16:39:54;2.60;84.04
70676;DHT22;59069;52.242;20.900;2022-12-05T16:42:27;2.62;84.02
70676;DHT22;59069;52.242;20.900;2022-12-05T16:45:00;2.61;84.10
70676;DHT22;59069;52.242;20.900;2022-12-05T16:47:54;2.61;84.09
70676;DHT22;59069;52.242;20.900;2022-12-05T16:50:33;2.64;84.07
70676;DHT22;59069;52.242;20.900;2022-12-05T16:55:35;2.64;83.97
70676;DHT22;59069;52.242;20.900;2022-12-05T16:58:03;2.64;83.94
70676;DHT22;59069;52.242;20.900;2022-12-05T17:00:29;2.70;83.80
70676;DHT22;59069;52.242;20.900;2022-12-05T17:02:57;2.62;83.86
70676;DHT22;59069;52.242;20.900;2022-12-05T17:05:23;2.65;83.96
70676;DHT22;59069;52.242;20.900;2022-12-05T17:07:49;2.64;83.97
70676;DHT22;59069;52.242;20.900;2022-12-05T17:10:14;2.66;83.87
70676;DHT22;59069;52.242;20.900;2022-12-05T17:12:41;2.68;83.86
70676;DHT22;59069;52.242;20.900;2022-12-05T17:15:16;2.68;83.84
70676;DHT22;59069;52.242;20.900;2022-12-05T17:17:42;2.70;83.86
70676;DHT22;59069;52.242;20.900;2022-12-05T17:20:08;2.71;83.67
70676;DHT22;59069;52.242;20.900;2022-12-05T17:22:33;2.72;83.51
70676;DHT22;59069;52.242;20.900;2022-12-05T17:24:58;2.70;83.63
70676;DHT22;59069;52.242;20.900;2022-12-05T17:27:25;2.72;83.67
70676;DHT22;59069;52.242;20.900;2022-12-05T17:29:50;2.72;83.58
70676;DHT22;59069;52.242;20.900;2022-12-05T17:32:16;2.75;83.52
70676;DHT22;59069;52.242;20.900;2022-12-05T17:34:41;2.77;83.43
70676;DHT22;59069;52.242;20.900;2022-12-05T17:37:06;2.75;83.40
70676;DHT22;59069;52.242;20.900;2022-12-05T17:39:32;2.77;83.37
70676;DHT22;59069;52.242;20.900;2022-12-05T17:41:57;2.75;83.40
70676;DHT22;59069;52.242;20.900;2022-12-05T17:44:23;2.77;83.24
70676;DHT22;59069;52.242;20.900;2022-12-05T17:46:48;2.75;83.28
70676;DHT22;59069;52.242;20.900;2022-12-05T17:49:14;2.78;83.29
70676;DHT22;59069;52.242;20.900;2022-12-05T17:51:41;2.81;83.20
70676;DHT22;59069;52.242;20.900;2022-12-05T17:54:07;2.81;83.19
70676;DHT22;59069;52.242;20.900;2022-12-05T17:56:33;2.81;83.06
70676;DHT22;59069;52.242;20.900;2022-12-05T17:58:58;2.84;82.96
70676;DHT22;59069;52.242;20.900;2022-12-05T18:01:23;2.81;82.94
70676;DHT22;59069;52.242;20.900;2022-12-05T18:03:52;2.82;82.94
70676;DHT22;59069;52.242;20.900;2022-12-05T18:06:17;2.82;82.91
70676;DHT22;59069;52.242;20.900;2022-12-05T18:08:43;2.84;82.97
70676;DHT22;59069;52.242;20.900;2022-12-05T18:11:10;2.82;82.89
70676;DHT22;59069;52.242;20.900;2022-12-05T18:13:36;2.82;82.80
70676;DHT22;59069;52.242;20.900;2022-12-05T18:16:01;2.87;82.67
70676;DHT22;59069;52.242;20.900;2022-12-05T18:18:27;2.88;82.78
70676;DHT22;59069;52.242;20.900;2022-12-05T18:21:08;2.87;82.72
70676;DHT22;59069;52.242;20.900;2022-12-05T18:23:35;2.89;82.73
70676;DHT22;59069;52.242;20.900;2022-12-05T18:26:01;2.92;82.62
70676;DHT22;59069;52.242;20.900;2022-12-05T18:28:26;2.91;82.49
70676;DHT22;59069;52.242;20.900;2022-12-05T18:31:03;2.92;82.37
70676;DHT22;59069;52.242;20.900;2022-12-05T18:33:28;2.91;82.38
70676;DHT22;59069;52.242;20.900;2022-12-05T18:35:54;2.91;82.37